sensor_id;sensor_type;location;lat;lon;timestamp;P1;durP1;ratioP1;P2;durP2;ratioP2
10939;SDS011;5522;42.696;23.494;2023-02-13T00:00:22;130.80;;;60.80;;
10939;SDS011;5522;42.696;23.494;2023-02-13T00:02:53;116.78;;;53.47;;
10939;SDS011;5522;42.696;23.494;2023-02-13T00:05:20;109.10;;;51.72;;
10939;SDS011;5522;42.696;23.494;2023-02-13T00:07:46;132.45;;;60.88;;
10939;SDS011;5522;42.696;23.494;2023-02-13T00:10:15;124.53;;;57.22;;
10939;SDS011;5522;42.696;23.494;2023-02-13T00:12:42;105.20;;;48.25;;
10939;SDS011;5522;42.696;23.494;2023-02-13T00:15:09;98.15;;;48.25;;
10939;SDS011;5522;42.696;23.494;2023-02-13T00:17:36;95.07;;;44.45;;
10939;SDS011;5522;42.696;23.494;2023-02-13T00:20:03;97.72;;;46.20;;
10939;SDS011;5522;42.696;23.494;2023-02-13T00:22:33;96.28;;;45.38;;
10939;SDS011;5522;42.696;23.494;2023-02-13T00:25:00;98.82;;;45.80;;
10939;SDS011;5522;42.696;23.494;2023-02-13T00:27:29;97.95;;;45.25;;
10939;SDS011;5522;42.696;23.494;2023-02-13T00:29:56;104.03;;;46.88;;
10939;SDS011;5522;42.696;23.494;2023-02-13T00:32:23;98.70;;;46.50;;
10939;SDS011;5522;42.696;23.494;2023-02-13T00:34:49;96.10;;;47.95;;
10939;SDS011;5522;42.696;23.494;2023-02-13T00:37:16;100.88;;;47.63;;
10939;SDS011;5522;42.696;23.494;2023-02-13T00:39:43;97.00;;;45.60;;
10939;SDS011;5522;42.696;23.494;2023-02-13T00:42:10;103.53;;;46.40;;
10939;SDS011;5522;42.696;23.494;2023-02-13T00:44:38;93.95;;;45.28;;
10939;SDS011;5522;42.696;23.494;2023-02-13T00:47:05;97.22;;;46.40;;
10939;SDS011;5522;42.696;23.494;2023-02-13T00:49:32;90.97;;;43.80;;
10939;SDS011;5522;42.696;23.494;2023-02-13T00:51:58;103.00;;;45.92;;
10939;SDS011;5522;42.696;23.494;2023-02-13T00:54:25;87.32;;;44.50;;
10939;SDS011;5522;42.696;23.494;2023-02-13T00:56:52;97.63;;;47.35;;
10939;SDS011;5522;42.696;23.494;2023-02-13T00:59:19;97.07;;;47.83;;
10939;SDS011;5522;42.696;23.494;2023-02-13T01:06:57;96.57;;;48.40;;
10939;SDS011;5522;42.696;23.494;2023-02-13T01:09:24;93.28;;;47.40;;
10939;SDS011;5522;42.696;23.494;2023-02-13T01:11:51;98.07;;;48.47;;
10939;SDS011;5522;42.696;23.494;2023-02-13T01:14:18;91.10;;;46.55;;
10939;SDS011;5522;42.696;23.494;2023-02-13T01:16:45;97.97;;;49.85;;
10939;SDS011;5522;42.696;23.494;2023-02-13T01:19:11;94.28;;;46.42;;
10939;SDS011;5522;42.696;23.494;2023-02-13T01:21:38;87.22;;;44.83;;
10939;SDS011;5522;42.696;23.494;2023-02-13T01:24:07;90.03;;;44.35;;
10939;SDS011;5522;42.696;23.494;2023-02-13T01:26:34;81.45;;;43.28;;
10939;SDS011;5522;42.696;23.494;2023-02-13T01:29:00;83.43;;;44.40;;
10939;SDS011;5522;42.696;23.494;2023-02-13T01:31:27;140.32;;;64.32;;
10939;SDS011;5522;42.696;23.494;2023-02-13T01:33:55;122.30;;;59.22;;
10939;SDS011;5522;42.696;23.494;2023-02-13T01:36:23;110.65;;;50.60;;
10939;SDS011;5522;42.696;23.494;2023-02-13T01:38:51;82.13;;;43.13;;
10939;SDS011;5522;42.696;23.494;2023-02-13T01:41:21;85.18;;;43.22;;
10939;SDS011;5522;42.696;23.494;2023-02-13T01:43:49;81.53;;;41.95;;
10939;SDS011;5522;42.696;23.494;2023-02-13T01:46:19;93.28;;;46.90;;
10939;SDS011;5522;42.696;23.494;2023-02-13T01:48:50;86.05;;;42.45;;
10939;SDS011;5522;42.696;23.494;2023-02-13T01:51:21;83.20;;;42.45;;
10939;SDS011;5522;42.696;23.494;2023-02-13T01:53:52;110.60;;;51.65;;
10939;SDS011;5522;42.696;23.494;2023-02-13T01:56:26;103.53;;;48.70;;
10939;SDS011;5522;42.696;23.494;2023-02-13T01:58:58;80.85;;;43.15;;
10939;SDS011;5522;42.696;23.494;2023-02-13T02:01:30;85.70;;;41.88;;
10939;SDS011;5522;42.696;23.494;2023-02-13T02:04:03;80.60;;;40.20;;
10939;SDS011;5522;42.696;23.494;2023-02-13T02:06:33;75.63;;;40.42;;
10939;SDS011;5522;42.696;23.494;2023-02-13T02:09:04;88.03;;;42.97;;
10939;SDS011;5522;42.696;23.494;2023-02-13T02:11:38;80.75;;;39.53;;
10939;SDS011;5522;42.696;23.494;2023-02-13T02:14:11;70.95;;;37.22;;
10939;SDS011;5522;42.696;23.494;2023-02-13T02:16:38;71.60;;;37.72;;
10939;SDS011;5522;42.696;23.494;2023-02-13T02:19:07;74.07;;;38.70;;
10939;SDS011;5522;42.696;23.494;2023-02-13T02:21:52;80.53;;;39.80;;
10939;SDS011;5522;42.696;23.494;2023-02-13T02:33:42;71.82;;;35.67;;
10939;SDS011;5522;42.696;23.494;2023-02-13T02:36:26;61.63;;;34.10;;
10939;SDS011;5522;42.696;23.494;2023-02-13T02:39:02;76.07;;;37.03;;
10939;SDS011;5522;42.696;23.494;2023-02-13T02:44:31;73.75;;;35.67;;
10939;SDS011;5522;42.696;23.494;2023-02-13T02:47:07;69.43;;;34.97;;
10939;SDS011;5522;42.696;23.494;2023-02-13T02:49:59;73.70;;;36.22;;
10939;SDS011;5522;42.696;23.494;2023-02-13T02:52:54;67.28;;;33.85;;
10939;SDS011;5522;42.696;23.494;2023-02-13T02:55:34;71.57;;;35.40;;
10939;SDS011;5522;42.696;23.494;2023-02-13T02:58:07;71.32;;;34.35;;
10939;SDS011;5522;42.696;23.494;2023-02-13T03:00:57;70.32;;;35.80;;
10939;SDS011;5522;42.696;23.494;2023-02-13T03:03:44;67.50;;;35.05;;
10939;SDS011;5522;42.696;23.494;2023-02-13T03:06:33;63.70;;;33.15;;
10939;SDS011;5522;42.696;23.494;2023-02-13T03:09:05;72.22;;;36.85;;
10939;SDS011;5522;42.696;23.494;2023-02-13T03:11:55;72.45;;;36.13;;
10939;SDS011;5522;42.696;23.494;2023-02-13T03:14:39;75.68;;;37.25;;
10939;SDS011;5522;42.696;23.494;2023-02-13T03:17:08;74.68;;;37.97;;
10939;SDS011;5522;42.696;23.494;2023-02-13T03:19:57;68.57;;;36.25;;
10939;SDS011;5522;42.696;23.494;2023-02-13T03:22:57;74.97;;;37.03;;
10939;SDS011;5522;42.696;23.494;2023-02-13T03:25:34;76.35;;;37.40;;
10939;SDS011;5522;42.696;23.494;2023-02-13T03:28:11;76.43;;;37.00;;
10939;SDS011;5522;42.696;23.494;2023-02-13T03:31:02;71.68;;;36.45;;
10939;SDS011;5522;42.696;23.494;2023-02-13T03:33:41;70.18;;;35.17;;
10939;SDS011;5522;42.696;23.494;2023-02-13T03:36:20;63.15;;;33.47;;
10939;SDS011;5522;42.696;23.494;2023-02-13T03:39:17;68.68;;;35.15;;
10939;SDS011;5522;42.696;23.494;2023-02-13T03:41:48;72.50;;;35.75;;
10939;SDS011;5522;42.696;23.494;2023-02-13T03:44:22;66.75;;;34.20;;
10939;SDS011;5522;42.696;23.494;2023-02-13T03:46:54;70.07;;;34.72;;
10939;SDS011;5522;42.696;23.494;2023-02-13T03:49:25;69.22;;;34.25;;
10939;SDS011;5522;42.696;23.494;2023-02-13T03:52:14;72.25;;;34.22;;
10939;SDS011;5522;42.696;23.494;2023-02-13T03:54:51;73.57;;;33.78;;
10939;SDS011;5522;42.696;23.494;2023-02-13T03:57:39;67.50;;;34.67;;
10939;SDS011;5522;42.696;23.494;2023-02-13T04:00:27;85.38;;;38.28;;
10939;SDS011;5522;42.696;23.494;2023-02-13T04:03:04;77.13;;;38.03;;
10939;SDS011;5522;42.696;23.494;2023-02-13T04:05:38;85.55;;;39.13;;
10939;SDS011;5522;42.696;23.494;2023-02-13T04:08:07;90.28;;;41.83;;
10939;SDS011;5522;42.696;23.494;2023-02-13T04:10:36;86.72;;;41.95;;
10939;SDS011;5522;42.696;23.494;2023-02-13T04:13:11;81.57;;;41.00;;
10939;SDS011;5522;42.696;23.494;2023-02-13T04:15:42;90.35;;;39.70;;
10939;SDS011;5522;42.696;23.494;2023-02-13T04:18:16;100.32;;;45.70;;
10939;SDS011;5522;42.696;23.494;2023-02-13T04:20:46;86.97;;;40.97;;
10939;SDS011;5522;42.696;23.494;2023-02-13T04:23:13;100.43;;;46.60;;
10939;SDS011;5522;42.696;23.494;2023-02-13T04:25:42;101.15;;;46.80;;
10939;SDS011;5522;42.696;23.494;2023-02-13T04:28:12;102.55;;;48.28;;
10939;SDS011;5522;42.696;23.494;2023-02-13T04:30:39;100.78;;;47.30;;
10939;SDS011;5522;42.696;23.494;2023-02-13T04:33:06;97.28;;;46.55;;
10939;SDS011;5522;42.696;23.494;2023-02-13T04:35:33;98.53;;;44.67;;
10939;SDS011;5522;42.696;23.494;2023-02-13T04:38:00;83.55;;;41.92;;
10939;SDS011;5522;42.696;23.494;2023-02-13T04:40:27;90.13;;;43.45;;
10939;SDS011;5522;42.696;23.494;2023-02-13T04:42:56;119.57;;;57.40;;
10939;SDS011;5522;42.696;23.494;2023-02-13T04:45:23;177.30;;;90.78;;
10939;SDS011;5522;42.696;23.494;2023-02-13T04:47:50;151.80;;;75.32;;
10939;SDS011;5522;42.696;23.494;2023-02-13T04:50:17;147.43;;;69.90;;
10939;SDS011;5522;42.696;23.494;2023-02-13T04:52:44;119.30;;;58.38;;
10939;SDS011;5522;42.696;23.494;2023-02-13T04:55:11;136.02;;;65.45;;
10939;SDS011;5522;42.696;23.494;2023-02-13T04:57:39;130.52;;;62.55;;
10939;SDS011;5522;42.696;23.494;2023-02-13T05:00:08;125.88;;;59.47;;
10939;SDS011;5522;42.696;23.494;2023-02-13T05:02:35;114.78;;;55.70;;
10939;SDS011;5522;42.696;23.494;2023-02-13T05:05:02;115.57;;;53.58;;
10939;SDS011;5522;42.696;23.494;2023-02-13T05:07:30;119.75;;;52.50;;
10939;SDS011;5522;42.696;23.494;2023-02-13T05:09:56;106.10;;;50.40;;
10939;SDS011;5522;42.696;23.494;2023-02-13T05:12:23;110.20;;;50.45;;
10939;SDS011;5522;42.696;23.494;2023-02-13T05:14:50;117.47;;;52.90;;
10939;SDS011;5522;42.696;23.494;2023-02-13T05:17:18;105.45;;;47.53;;
10939;SDS011;5522;42.696;23.494;2023-02-13T05:19:45;100.45;;;45.08;;
10939;SDS011;5522;42.696;23.494;2023-02-13T05:22:12;100.50;;;45.28;;
10939;SDS011;5522;42.696;23.494;2023-02-13T05:24:57;98.03;;;45.45;;
10939;SDS011;5522;42.696;23.494;2023-02-13T05:27:23;103.47;;;44.53;;
10939;SDS011;5522;42.696;23.494;2023-02-13T05:29:50;96.97;;;44.08;;
10939;SDS011;5522;42.696;23.494;2023-02-13T05:32:19;103.30;;;45.78;;
10939;SDS011;5522;42.696;23.494;2023-02-13T05:34:45;99.82;;;44.55;;
10939;SDS011;5522;42.696;23.494;2023-02-13T05:37:12;99.30;;;44.30;;
10939;SDS011;5522;42.696;23.494;2023-02-13T05:39:39;104.75;;;44.58;;
10939;SDS011;5522;42.696;23.494;2023-02-13T05:42:06;101.10;;;45.60;;
10939;SDS011;5522;42.696;23.494;2023-02-13T05:44:34;107.40;;;45.83;;
10939;SDS011;5522;42.696;23.494;2023-02-13T05:47:01;106.75;;;47.80;;
10939;SDS011;5522;42.696;23.494;2023-02-13T05:49:29;117.47;;;54.85;;
10939;SDS011;5522;42.696;23.494;2023-02-13T05:51:56;128.65;;;56.45;;
10939;SDS011;5522;42.696;23.494;2023-02-13T05:54:23;117.57;;;53.55;;
10939;SDS011;5522;42.696;23.494;2023-02-13T05:56:50;134.88;;;57.60;;
10939;SDS011;5522;42.696;23.494;2023-02-13T05:59:17;121.60;;;53.22;;
10939;SDS011;5522;42.696;23.494;2023-02-13T06:01:44;128.60;;;54.83;;
10939;SDS011;5522;42.696;23.494;2023-02-13T06:04:11;114.07;;;52.85;;
10939;SDS011;5522;42.696;23.494;2023-02-13T06:06:39;121.25;;;52.95;;
10939;SDS011;5522;42.696;23.494;2023-02-13T06:09:06;121.63;;;55.75;;
10939;SDS011;5522;42.696;23.494;2023-02-13T06:11:33;283.38;;;90.32;;
10939;SDS011;5522;42.696;23.494;2023-02-13T06:14:00;501.48;;;141.40;;
10939;SDS011;5522;42.696;23.494;2023-02-13T06:16:27;249.52;;;90.93;;
10939;SDS011;5522;42.696;23.494;2023-02-13T06:18:55;197.77;;;80.72;;
10939;SDS011;5522;42.696;23.494;2023-02-13T06:21:22;225.63;;;86.85;;
10939;SDS011;5522;42.696;23.494;2023-02-13T06:23:50;233.95;;;87.20;;
10939;SDS011;5522;42.696;23.494;2023-02-13T06:26:17;305.38;;;112.57;;
10939;SDS011;5522;42.696;23.494;2023-02-13T06:28:44;256.13;;;106.38;;
10939;SDS011;5522;42.696;23.494;2023-02-13T06:31:11;250.93;;;102.95;;
10939;SDS011;5522;42.696;23.494;2023-02-13T06:33:38;267.98;;;127.22;;
10939;SDS011;5522;42.696;23.494;2023-02-13T06:36:05;182.13;;;82.82;;
10939;SDS011;5522;42.696;23.494;2023-02-13T06:38:33;217.05;;;101.78;;
10939;SDS011;5522;42.696;23.494;2023-02-13T06:41:01;220.25;;;103.72;;
10939;SDS011;5522;42.696;23.494;2023-02-13T06:43:28;211.20;;;94.28;;
10939;SDS011;5522;42.696;23.494;2023-02-13T06:45:55;242.60;;;102.75;;
10939;SDS011;5522;42.696;23.494;2023-02-13T06:48:22;284.75;;;114.80;;
10939;SDS011;5522;42.696;23.494;2023-02-13T06:50:49;221.55;;;98.57;;
10939;SDS011;5522;42.696;23.494;2023-02-13T06:53:17;216.90;;;94.43;;
10939;SDS011;5522;42.696;23.494;2023-02-13T06:55:48;177.18;;;82.03;;
10939;SDS011;5522;42.696;23.494;2023-02-13T06:58:17;155.75;;;73.65;;
10939;SDS011;5522;42.696;23.494;2023-02-13T07:00:44;153.30;;;70.82;;
10939;SDS011;5522;42.696;23.494;2023-02-13T07:03:12;116.07;;;57.47;;
10939;SDS011;5522;42.696;23.494;2023-02-13T07:05:39;103.35;;;55.75;;
10939;SDS011;5522;42.696;23.494;2023-02-13T07:08:06;97.25;;;55.92;;
10939;SDS011;5522;42.696;23.494;2023-02-13T07:10:35;101.78;;;54.65;;
10939;SDS011;5522;42.696;23.494;2023-02-13T07:13:02;95.70;;;54.13;;
10939;SDS011;5522;42.696;23.494;2023-02-13T07:15:31;110.40;;;56.92;;
10939;SDS011;5522;42.696;23.494;2023-02-13T07:17:58;168.02;;;70.68;;
10939;SDS011;5522;42.696;23.494;2023-02-13T07:20:26;115.53;;;60.63;;
10939;SDS011;5522;42.696;23.494;2023-02-13T07:22:56;140.82;;;66.03;;
10939;SDS011;5522;42.696;23.494;2023-02-13T07:25:23;101.88;;;56.60;;
10939;SDS011;5522;42.696;23.494;2023-02-13T07:27:51;101.47;;;56.88;;
10939;SDS011;5522;42.696;23.494;2023-02-13T07:30:17;114.20;;;57.92;;
10939;SDS011;5522;42.696;23.494;2023-02-13T07:32:46;93.25;;;47.92;;
10939;SDS011;5522;42.696;23.494;2023-02-13T07:35:13;95.05;;;53.60;;
10939;SDS011;5522;42.696;23.494;2023-02-13T07:37:39;86.53;;;49.78;;
10939;SDS011;5522;42.696;23.494;2023-02-13T07:40:07;96.90;;;51.45;;
10939;SDS011;5522;42.696;23.494;2023-02-13T07:42:34;83.60;;;43.53;;
10939;SDS011;5522;42.696;23.494;2023-02-13T07:45:01;71.43;;;41.45;;
10939;SDS011;5522;42.696;23.494;2023-02-13T07:47:29;70.18;;;40.03;;
10939;SDS011;5522;42.696;23.494;2023-02-13T07:49:58;71.32;;;40.30;;
10939;SDS011;5522;42.696;23.494;2023-02-13T07:52:24;65.13;;;37.92;;
10939;SDS011;5522;42.696;23.494;2023-02-13T07:54:51;57.92;;;35.17;;
10939;SDS011;5522;42.696;23.494;2023-02-13T07:57:18;63.00;;;37.80;;
10939;SDS011;5522;42.696;23.494;2023-02-13T07:59:45;61.78;;;35.55;;
10939;SDS011;5522;42.696;23.494;2023-02-13T08:02:12;60.78;;;34.85;;
10939;SDS011;5522;42.696;23.494;2023-02-13T08:04:39;60.55;;;35.78;;
10939;SDS011;5522;42.696;23.494;2023-02-13T08:07:11;57.03;;;34.05;;
10939;SDS011;5522;42.696;23.494;2023-02-13T08:09:38;59.88;;;36.28;;
10939;SDS011;5522;42.696;23.494;2023-02-13T08:12:22;55.25;;;35.70;;
10939;SDS011;5522;42.696;23.494;2023-02-13T08:14:49;61.53;;;35.33;;
10939;SDS011;5522;42.696;23.494;2023-02-13T08:17:16;58.85;;;34.97;;
10939;SDS011;5522;42.696;23.494;2023-02-13T08:19:43;57.17;;;35.08;;
10939;SDS011;5522;42.696;23.494;2023-02-13T08:22:11;57.30;;;33.30;;
10939;SDS011;5522;42.696;23.494;2023-02-13T08:24:38;59.78;;;33.92;;
10939;SDS011;5522;42.696;23.494;2023-02-13T08:27:05;55.55;;;33.20;;
10939;SDS011;5522;42.696;23.494;2023-02-13T08:29:32;54.40;;;33.95;;
10939;SDS011;5522;42.696;23.494;2023-02-13T08:31:59;50.72;;;32.05;;
10939;SDS011;5522;42.696;23.494;2023-02-13T08:34:26;47.45;;;30.05;;
10939;SDS011;5522;42.696;23.494;2023-02-13T08:36:53;50.20;;;32.13;;
10939;SDS011;5522;42.696;23.494;2023-02-13T08:39:21;50.88;;;31.23;;
10939;SDS011;5522;42.696;23.494;2023-02-13T08:41:48;50.95;;;32.03;;
10939;SDS011;5522;42.696;23.494;2023-02-13T08:44:14;52.88;;;33.60;;
10939;SDS011;5522;42.696;23.494;2023-02-13T08:46:41;55.15;;;33.88;;
10939;SDS011;5522;42.696;23.494;2023-02-13T08:49:08;59.33;;;32.13;;
10939;SDS011;5522;42.696;23.494;2023-02-13T08:51:35;56.08;;;31.92;;
10939;SDS011;5522;42.696;23.494;2023-02-13T08:54:02;61.45;;;33.80;;
10939;SDS011;5522;42.696;23.494;2023-02-13T08:56:30;57.58;;;33.40;;
10939;SDS011;5522;42.696;23.494;2023-02-13T08:58:57;58.47;;;33.78;;
10939;SDS011;5522;42.696;23.494;2023-02-13T09:01:23;57.15;;;31.75;;
10939;SDS011;5522;42.696;23.494;2023-02-13T09:03:50;58.85;;;31.65;;
10939;SDS011;5522;42.696;23.494;2023-02-13T09:06:17;53.35;;;31.13;;
10939;SDS011;5522;42.696;23.494;2023-02-13T09:08:44;54.25;;;32.28;;
10939;SDS011;5522;42.696;23.494;2023-02-13T09:11:11;55.15;;;31.38;;
10939;SDS011;5522;42.696;23.494;2023-02-13T09:13:39;46.72;;;27.13;;
10939;SDS011;5522;42.696;23.494;2023-02-13T09:16:06;44.53;;;26.60;;
10939;SDS011;5522;42.696;23.494;2023-02-13T09:18:34;53.72;;;30.52;;
10939;SDS011;5522;42.696;23.494;2023-02-13T09:21:02;47.42;;;27.08;;
10939;SDS011;5522;42.696;23.494;2023-02-13T09:23:31;46.17;;;29.02;;
10939;SDS011;5522;42.696;23.494;2023-02-13T09:25:59;42.47;;;25.85;;
10939;SDS011;5522;42.696;23.494;2023-02-13T09:28:27;40.08;;;24.70;;
10939;SDS011;5522;42.696;23.494;2023-02-13T09:30:56;38.78;;;23.05;;
10939;SDS011;5522;42.696;23.494;2023-02-13T09:33:23;36.13;;;20.50;;
10939;SDS011;5522;42.696;23.494;2023-02-13T09:35:51;40.60;;;21.15;;
10939;SDS011;5522;42.696;23.494;2023-02-13T09:38:18;41.92;;;23.40;;
10939;SDS011;5522;42.696;23.494;2023-02-13T09:40:46;40.63;;;22.52;;
10939;SDS011;5522;42.696;23.494;2023-02-13T09:43:17;42.45;;;23.83;;
10939;SDS011;5522;42.696;23.494;2023-02-13T09:45:53;45.83;;;24.50;;
10939;SDS011;5522;42.696;23.494;2023-02-13T09:48:26;44.25;;;25.73;;
10939;SDS011;5522;42.696;23.494;2023-02-13T09:50:55;43.55;;;24.60;;
10939;SDS011;5522;42.696;23.494;2023-02-13T09:53:24;44.22;;;25.75;;
10939;SDS011;5522;42.696;23.494;2023-02-13T09:55:59;39.10;;;25.02;;
10939;SDS011;5522;42.696;23.494;2023-02-13T09:58:41;43.03;;;25.25;;
10939;SDS011;5522;42.696;23.494;2023-02-13T10:01:16;44.47;;;26.55;;
10939;SDS011;5522;42.696;23.494;2023-02-13T10:03:50;47.85;;;26.25;;
10939;SDS011;5522;42.696;23.494;2023-02-13T10:06:28;41.25;;;24.80;;
10939;SDS011;5522;42.696;23.494;2023-02-13T10:09:03;39.15;;;23.75;;
10939;SDS011;5522;42.696;23.494;2023-02-13T10:11:44;39.65;;;23.55;;
10939;SDS011;5522;42.696;23.494;2023-02-13T10:14:34;40.42;;;24.65;;
10939;SDS011;5522;42.696;23.494;2023-02-13T10:17:12;39.25;;;23.45;;
10939;SDS011;5522;42.696;23.494;2023-02-13T10:19:43;37.60;;;23.13;;
10939;SDS011;5522;42.696;23.494;2023-02-13T10:22:14;39.97;;;26.95;;
10939;SDS011;5522;42.696;23.494;2023-02-13T10:24:45;44.95;;;27.15;;
10939;SDS011;5522;42.696;23.494;2023-02-13T10:27:20;38.00;;;24.80;;
10939;SDS011;5522;42.696;23.494;2023-02-13T10:29:53;45.25;;;24.27;;
10939;SDS011;5522;42.696;23.494;2023-02-13T10:32:38;37.92;;;24.73;;
10939;SDS011;5522;42.696;23.494;2023-02-13T10:35:15;43.35;;;26.55;;
10939;SDS011;5522;42.696;23.494;2023-02-13T10:37:44;44.83;;;28.10;;
10939;SDS011;5522;42.696;23.494;2023-02-13T10:40:16;39.97;;;25.70;;
10939;SDS011;5522;42.696;23.494;2023-02-13T10:42:44;38.25;;;25.85;;
10939;SDS011;5522;42.696;23.494;2023-02-13T10:45:19;39.97;;;27.23;;
10939;SDS011;5522;42.696;23.494;2023-02-13T10:48:00;42.97;;;27.88;;
10939;SDS011;5522;42.696;23.494;2023-02-13T10:50:38;42.70;;;28.35;;
10939;SDS011;5522;42.696;23.494;2023-02-13T10:53:12;43.72;;;27.95;;
10939;SDS011;5522;42.696;23.494;2023-02-13T10:55:54;42.80;;;29.38;;
10939;SDS011;5522;42.696;23.494;2023-02-13T11:01:20;40.20;;;27.92;;
10939;SDS011;5522;42.696;23.494;2023-02-13T11:04:01;42.22;;;27.00;;
10939;SDS011;5522;42.696;23.494;2023-02-13T11:06:31;44.55;;;28.83;;
10939;SDS011;5522;42.696;23.494;2023-02-13T11:08:58;41.58;;;27.23;;
10939;SDS011;5522;42.696;23.494;2023-02-13T11:11:29;41.30;;;26.52;;
10939;SDS011;5522;42.696;23.494;2023-02-13T11:14:07;39.63;;;26.55;;
10939;SDS011;5522;42.696;23.494;2023-02-13T11:16:39;44.30;;;26.83;;
10939;SDS011;5522;42.696;23.494;2023-02-13T11:19:19;37.05;;;25.45;;
10939;SDS011;5522;42.696;23.494;2023-02-13T11:21:52;36.50;;;25.48;;
10939;SDS011;5522;42.696;23.494;2023-02-13T11:24:22;36.22;;;25.08;;
10939;SDS011;5522;42.696;23.494;2023-02-13T11:26:51;38.45;;;25.30;;
10939;SDS011;5522;42.696;23.494;2023-02-13T11:29:23;39.08;;;25.95;;
10939;SDS011;5522;42.696;23.494;2023-02-13T11:32:05;40.00;;;27.02;;
10939;SDS011;5522;42.696;23.494;2023-02-13T11:34:44;41.58;;;27.60;;
10939;SDS011;5522;42.696;23.494;2023-02-13T11:37:21;43.47;;;28.50;;
10939;SDS011;5522;42.696;23.494;2023-02-13T11:39:51;46.10;;;28.92;;
10939;SDS011;5522;42.696;23.494;2023-02-13T11:42:20;46.95;;;27.70;;
10939;SDS011;5522;42.696;23.494;2023-02-13T11:44:55;44.70;;;26.58;;
10939;SDS011;5522;42.696;23.494;2023-02-13T11:47:38;43.17;;;26.25;;
10939;SDS011;5522;42.696;23.494;2023-02-13T11:50:18;39.15;;;23.63;;
10939;SDS011;5522;42.696;23.494;2023-02-13T11:52:54;42.35;;;24.08;;
10939;SDS011;5522;42.696;23.494;2023-02-13T11:55:25;44.30;;;23.45;;
10939;SDS011;5522;42.696;23.494;2023-02-13T11:57:55;37.10;;;22.42;;
10939;SDS011;5522;42.696;23.494;2023-02-13T12:00:29;40.67;;;23.83;;
10939;SDS011;5522;42.696;23.494;2023-02-13T12:03:02;34.95;;;23.33;;
10939;SDS011;5522;42.696;23.494;2023-02-13T12:06:00;37.40;;;22.63;;
10939;SDS011;5522;42.696;23.494;2023-02-13T12:08:30;48.58;;;28.33;;
10939;SDS011;5522;42.696;23.494;2023-02-13T12:10:58;41.97;;;25.73;;
10939;SDS011;5522;42.696;23.494;2023-02-13T12:13:28;40.10;;;23.00;;
10939;SDS011;5522;42.696;23.494;2023-02-13T12:15:59;40.55;;;23.10;;
10939;SDS011;5522;42.696;23.494;2023-02-13T12:18:28;37.88;;;21.05;;
10939;SDS011;5522;42.696;23.494;2023-02-13T12:21:02;35.72;;;20.92;;
10939;SDS011;5522;42.696;23.494;2023-02-13T12:23:38;39.08;;;21.90;;
10939;SDS011;5522;42.696;23.494;2023-02-13T12:29:01;32.33;;;19.95;;
10939;SDS011;5522;42.696;23.494;2023-02-13T12:31:41;34.20;;;19.70;;
10939;SDS011;5522;42.696;23.494;2023-02-13T12:34:35;33.35;;;20.92;;
10939;SDS011;5522;42.696;23.494;2023-02-13T12:37:25;35.17;;;18.50;;
10939;SDS011;5522;42.696;23.494;2023-02-13T12:40:15;30.75;;;17.45;;
10939;SDS011;5522;42.696;23.494;2023-02-13T12:43:02;21.27;;;13.38;;
10939;SDS011;5522;42.696;23.494;2023-02-13T12:45:45;23.85;;;14.02;;
10939;SDS011;5522;42.696;23.494;2023-02-13T12:48:22;25.92;;;13.40;;
10939;SDS011;5522;42.696;23.494;2023-02-13T12:51:00;19.10;;;11.25;;
10939;SDS011;5522;42.696;23.494;2023-02-13T12:53:37;23.85;;;13.35;;
10939;SDS011;5522;42.696;23.494;2023-02-13T12:59:27;13.88;;;8.32;;
10939;SDS011;5522;42.696;23.494;2023-02-13T13:02:14;13.32;;;7.70;;
10939;SDS011;5522;42.696;23.494;2023-02-13T13:05:03;9.90;;;6.65;;
10939;SDS011;5522;42.696;23.494;2023-02-13T13:07:44;12.95;;;7.78;;
10939;SDS011;5522;42.696;23.494;2023-02-13T13:10:28;13.40;;;7.80;;
10939;SDS011;5522;42.696;23.494;2023-02-13T13:13:06;11.63;;;6.75;;
10939;SDS011;5522;42.696;23.494;2023-02-13T13:15:46;8.48;;;5.13;;
10939;SDS011;5522;42.696;23.494;2023-02-13T13:18:23;9.63;;;6.35;;
10939;SDS011;5522;42.696;23.494;2023-02-13T13:20:59;14.15;;;6.80;;
10939;SDS011;5522;42.696;23.494;2023-02-13T13:23:35;8.40;;;6.55;;
10939;SDS011;5522;42.696;23.494;2023-02-13T13:26:13;13.80;;;6.50;;
10939;SDS011;5522;42.696;23.494;2023-02-13T13:28:48;9.27;;;6.28;;
10939;SDS011;5522;42.696;23.494;2023-02-13T13:31:17;9.38;;;6.25;;
10939;SDS011;5522;42.696;23.494;2023-02-13T13:33:48;9.77;;;6.57;;
10939;SDS011;5522;42.696;23.494;2023-02-13T13:36:18;8.35;;;5.18;;
10939;SDS011;5522;42.696;23.494;2023-02-13T13:38:58;7.65;;;4.78;;
10939;SDS011;5522;42.696;23.494;2023-02-13T13:41:34;8.60;;;4.63;;
10939;SDS011;5522;42.696;23.494;2023-02-13T13:44:13;9.88;;;5.70;;
10939;SDS011;5522;42.696;23.494;2023-02-13T13:46:54;8.13;;;6.68;;
10939;SDS011;5522;42.696;23.494;2023-02-13T13:49:26;5.78;;;4.72;;
10939;SDS011;5522;42.696;23.494;2023-02-13T13:54:48;6.22;;;3.83;;
10939;SDS011;5522;42.696;23.494;2023-02-13T13:57:19;5.22;;;3.83;;
10939;SDS011;5522;42.696;23.494;2023-02-13T14:05:56;7.30;;;4.97;;
10939;SDS011;5522;42.696;23.494;2023-02-13T14:11:32;10.70;;;5.32;;
10939;SDS011;5522;42.696;23.494;2023-02-13T14:14:42;9.63;;;5.72;;
10939;SDS011;5522;42.696;23.494;2023-02-13T14:20:28;9.20;;;5.65;;
10939;SDS011;5522;42.696;23.494;2023-02-13T14:23:07;10.57;;;5.63;;
10939;SDS011;5522;42.696;23.494;2023-02-13T14:25:44;9.93;;;6.78;;
10939;SDS011;5522;42.696;23.494;2023-02-13T14:28:18;9.15;;;6.03;;
10939;SDS011;5522;42.696;23.494;2023-02-13T14:30:50;8.93;;;5.95;;
10939;SDS011;5522;42.696;23.494;2023-02-13T14:33:23;9.88;;;6.05;;
10939;SDS011;5522;42.696;23.494;2023-02-13T14:36:00;7.93;;;5.22;;
10939;SDS011;5522;42.696;23.494;2023-02-13T14:38:31;8.55;;;5.80;;
10939;SDS011;5522;42.696;23.494;2023-02-13T14:40:59;7.20;;;5.25;;
10939;SDS011;5522;42.696;23.494;2023-02-13T14:43:34;9.60;;;6.30;;
10939;SDS011;5522;42.696;23.494;2023-02-13T14:46:22;11.40;;;6.65;;
10939;SDS011;5522;42.696;23.494;2023-02-13T14:48:56;10.02;;;6.25;;
10939;SDS011;5522;42.696;23.494;2023-02-13T14:51:32;9.65;;;6.38;;
10939;SDS011;5522;42.696;23.494;2023-02-13T14:54:03;12.48;;;6.68;;
10939;SDS011;5522;42.696;23.494;2023-02-13T14:56:36;11.30;;;6.18;;
10939;SDS011;5522;42.696;23.494;2023-02-13T14:59:13;9.20;;;5.32;;
10939;SDS011;5522;42.696;23.494;2023-02-13T15:01:45;9.40;;;6.38;;
10939;SDS011;5522;42.696;23.494;2023-02-13T15:04:15;7.97;;;6.28;;
10939;SDS011;5522;42.696;23.494;2023-02-13T15:06:47;14.60;;;6.85;;
10939;SDS011;5522;42.696;23.494;2023-02-13T15:09:20;11.27;;;7.57;;
10939;SDS011;5522;42.696;23.494;2023-02-13T15:11:53;11.45;;;7.00;;
10939;SDS011;5522;42.696;23.494;2023-02-13T15:14:21;11.77;;;7.28;;
10939;SDS011;5522;42.696;23.494;2023-02-13T15:16:56;11.25;;;6.85;;
10939;SDS011;5522;42.696;23.494;2023-02-13T15:19:27;12.95;;;7.40;;
10939;SDS011;5522;42.696;23.494;2023-02-13T15:21:56;12.60;;;6.85;;
10939;SDS011;5522;42.696;23.494;2023-02-13T15:24:24;9.32;;;6.35;;
10939;SDS011;5522;42.696;23.494;2023-02-13T15:26:57;16.13;;;7.40;;
10939;SDS011;5522;42.696;23.494;2023-02-13T15:29:26;13.77;;;6.30;;